Accueil
METAR-TAF:

METAR-TAF

Aéroports :

Aéroport Constantin-le-Grand de Niš

Niš, Serbie

latitude: 43-20N, longitude: 021-54E, altitude: 202 m

Observation

Le bulletin a été fait il y a 24 minutes, à 14:30 UTC
Vent 9 kt de nord-ouest, variant entre ouest/sud-ouest et nord
Température 23°C
Humidité 50%
Pression 1016 hPa
Visibilité 10 km ou plus
Quelques nuages à une hauteur de 4300 ft

METAR: LYNI 141430Z 31009KT 240V010 9999 FEW043 23/12 Q1016 NOSIG

Heure: 16:54 (14:54 UTC)

Prévision

Le bulletin a été fait il y a 3 heures et 54 minutes, à 11:00 UTC
Prévision valable du 14 à 12 UTC au 15 à 12 UTC
Vent 15 kt de nord-ouest
Visibilité 10 km ou plus
pas de nuages en-dessous de 1500 mètres et pas de cumulonimbus.
Evoluant progressivement
du 14 à 15 UTC au 14 à 17 UTC
Vent 5 kt de nord/nord-ouest

TAF: LYNI 141100Z 1412/1512 32015KT CAVOK TX26/1512Z TN09/1503Z BECMG 1415/1417 34005KT

Observations et prévisions météorologiques de plus de 4000 aéroports (messages METAR et TAF).

Les stations disponibles sont représentées par des disques jaunes et rouges sur la carte.

Passer la souris dessus pour voir le nom de la station.

Cliquer dessus pour voir les observations et prévisions météorologiques.

Pour changer de carte: cliquez sur les boutons verts avec une croix noire pour zoomer, sur le bouton vert avec un tiret pour effectuer un zoom arrière, ou sur les flèches vertes pour les cartes adjacentes.


METAR-TAF: